createdAt,value
2022-09-22T06:26:41.544Z,101935.72
2022-09-22T06:27:43.931Z,101941.78
2022-09-22T06:28:47.001Z,101937.22
2022-09-22T06:29:49.938Z,101937.03
2022-09-22T06:30:52.465Z,101934.25
2022-09-22T06:31:54.045Z,101938.50
2022-09-22T06:32:57.071Z,101933.97
2022-09-22T06:33:58.619Z,101934.91
2022-09-22T06:35:02.483Z,101936.63
2022-09-22T06:36:07.867Z,101932.97
2022-09-22T06:38:14.775Z,101936.50
2022-09-22T06:39:17.294Z,101930.25
2022-09-22T06:40:20.597Z,101935.56
2022-09-22T06:41:22.236Z,101934.69
2022-09-22T06:42:26.116Z,101937.34
2022-09-22T06:43:27.772Z,101934.63
2022-09-22T06:44:31.875Z,101936.41
2022-09-22T06:45:34.167Z,101933.75
2022-09-22T06:46:37.822Z,101936.28
2022-09-22T06:47:39.449Z,101940.78
2022-09-22T06:48:41.933Z,101938.94
2022-09-22T06:49:43.505Z,101942.47
2022-09-22T06:50:49.733Z,101939.81
2022-09-22T06:51:51.750Z,101936.09
2022-09-22T06:52:59.595Z,101936.84
2022-09-22T06:54:04.059Z,101943.03
2022-09-22T06:55:07.716Z,101937.72
2022-09-22T06:56:09.429Z,101935.78
2022-09-22T06:57:12.948Z,101940.25
2022-09-22T06:58:15.930Z,101935.78
2022-09-22T06:59:18.487Z,101935.78
2022-09-22T07:00:20.085Z,101933.88
2022-09-22T07:01:24.262Z,101939.19
2022-09-22T07:02:28.042Z,101937.31
2022-09-22T07:03:29.901Z,101939.84
2022-09-22T07:04:32.555Z,101935.38
2022-09-22T07:05:35.295Z,101936.16
2022-09-22T07:06:40.370Z,101937.75
2022-09-22T07:07:41.877Z,101934.16
2022-09-22T07:08:45.757Z,101939.34
2022-09-22T07:09:48.649Z,101934.88
2022-09-22T07:10:56.191Z,101928.50
2022-09-22T07:12:00.151Z,101932.88
2022-09-22T07:13:01.649Z,101934.59
2022-09-22T07:14:05.980Z,101937.97
2022-09-22T07:15:09.318Z,101943.31
2022-09-22T07:16:13.007Z,101936.25
2022-09-22T07:17:16.079Z,101940.63
2022-09-22T07:18:17.681Z,101945.00
2022-09-22T07:19:20.670Z,101933.41
2022-09-22T07:20:22.170Z,101936.06
2022-09-22T07:21:27.428Z,101936.06
2022-09-22T07:22:29.918Z,101937.69
2022-09-22T07:23:33.719Z,101938.41
2022-09-22T07:24:36.188Z,101936.63
2022-09-22T07:25:37.727Z,101933.97
2022-09-22T07:26:40.794Z,101935.63
2022-09-22T07:27:42.453Z,101939.16
2022-09-22T07:28:46.805Z,101933.75
2022-09-22T07:29:50.687Z,101935.47
2022-09-22T07:30:52.248Z,101939.81
2022-09-22T07:31:55.522Z,101935.47
2022-09-22T07:32:58.377Z,101935.34
2022-09-22T07:34:01.494Z,101931.81
2022-09-22T07:35:04.084Z,101927.28
2022-09-22T07:36:09.415Z,101929.94
2022-09-22T07:37:15.676Z,101930.75
2022-09-22T07:38:18.712Z,101928.84
2022-09-22T07:39:21.348Z,101931.41
2022-09-22T07:40:23.032Z,101930.44
2022-09-22T07:41:28.342Z,101932.03
2022-09-22T07:42:29.857Z,101926.84
2022-09-22T07:43:32.390Z,101933.84
2022-09-22T07:44:52.559Z,101922.25
2022-09-22T07:45:57.171Z,101929.16
2022-09-22T07:46:59.255Z,101929.09
2022-09-22T07:48:19.482Z,101928.88
2022-09-22T07:49:22.262Z,101933.34
2022-09-22T07:50:23.803Z,101935.91
2022-09-22T07:51:27.387Z,101933.97
2022-09-22T07:52:29.892Z,101931.31
2022-09-22T07:53:32.823Z,101932.91
2022-09-22T07:54:36.824Z,101933.75
2022-09-22T07:55:38.534Z,101937.16
2022-09-22T07:56:42.822Z,101929.09
2022-09-22T07:57:45.384Z,101929.03
2022-09-22T07:58:50.475Z,101931.56
2022-09-22T07:59:52.030Z,101932.31
2022-09-22T08:00:55.910Z,101933.06
2022-09-22T08:01:59.987Z,101930.28
2022-09-22T08:03:01.701Z,101938.06
2022-09-22T08:04:04.881Z,101936.16
2022-09-22T08:05:08.464Z,101931.56
2022-09-22T08:06:11.584Z,101925.28
2022-09-22T08:07:14.967Z,101930.63
2022-09-22T08:08:16.582Z,101927.00
2022-09-22T08:09:19.974Z,101926.03
2022-09-22T08:10:21.474Z,101926.78
2022-09-22T08:11:25.767Z,101924.84
2022-09-22T08:12:28.053Z,101927.31
2022-09-22T08:13:31.096Z,101929.88
2022-09-22T08:14:33.557Z,101926.13
2022-09-22T08:15:36.707Z,101926.78
2022-09-22T08:16:41.909Z,101927.50
2022-09-22T08:17:43.864Z,101931.75
2022-09-22T08:18:50.832Z,101928.91
2022-09-22T08:19:52.355Z,101930.59
2022-09-22T08:20:54.812Z,101927.69
2022-09-22T08:21:57.653Z,101929.19
2022-09-22T08:23:02.798Z,101928.25
2022-09-22T08:24:06.654Z,101926.31
2022-09-22T08:25:12.306Z,101924.59
2022-09-22T08:26:13.819Z,101928.03
2022-09-22T08:27:16.326Z,101925.22
2022-09-22T08:28:17.867Z,101926.09
2022-09-22T08:29:20.957Z,101918.00
2022-09-22T08:30:23.512Z,101924.91
2022-09-22T08:31:27.969Z,101925.66
2022-09-22T08:32:31.826Z,101920.94
2022-09-22T08:33:34.384Z,101925.22
2022-09-22T08:34:35.927Z,101922.34
2022-09-22T08:35:38.417Z,101923.06
2022-09-22T08:36:40.170Z,101922.84
2022-09-22T08:37:43.773Z,101923.56
2022-09-22T08:38:49.648Z,101926.00
2022-09-22T08:39:52.214Z,101929.44
2022-09-22T08:41:08.452Z,101925.81
2022-09-22T08:42:19.509Z,101931.88
2022-09-22T08:43:21.192Z,101929.09
2022-09-22T08:44:26.361Z,101926.31
2022-09-22T08:45:34.263Z,101930.56
2022-09-22T08:46:38.349Z,101936.66
2022-09-22T08:48:05.730Z,101926.72
2022-09-22T08:49:32.913Z,101931.84
2022-09-22T08:50:58.423Z,101932.56
2022-09-22T08:52:07.221Z,101930.53
2022-09-22T08:53:15.009Z,101935.75
2022-09-22T08:54:17.970Z,101936.47
2022-09-22T08:55:24.194Z,101934.56
2022-09-22T08:56:31.261Z,101932.78
2022-09-22T08:57:59.196Z,101940.63
2022-09-22T08:59:08.029Z,101939.56
2022-09-22T09:00:14.538Z,101939.31
2022-09-22T09:01:35.279Z,101930.38
2022-09-22T09:02:49.211Z,101941.75
2022-09-22T09:04:01.239Z,101937.19
2022-09-22T09:05:38.989Z,101931.00
2022-09-22T09:06:52.706Z,101934.38
2022-09-22T09:08:02.346Z,101931.63
2022-09-22T09:09:28.161Z,101928.84
2022-09-22T09:10:41.328Z,101927.81
2022-09-22T09:11:59.604Z,101925.75
2022-09-22T09:13:17.687Z,101928.19
2022-09-22T09:14:37.156Z,101931.59
2022-09-22T09:15:55.838Z,101924.22
2022-09-22T09:17:05.467Z,101931.97
2022-09-22T09:18:14.701Z,101924.69
2022-09-22T09:19:19.996Z,101925.44
2022-09-22T09:20:32.171Z,101922.56
2022-09-22T09:21:37.325Z,101924.25
2022-09-22T09:22:47.832Z,101934.69
2022-09-22T09:25:23.003Z,101931.56
2022-09-22T09:26:28.308Z,101929.50
2022-09-22T09:27:35.661Z,101932.81
2022-09-22T09:28:42.089Z,101927.22
2022-09-22T09:29:55.057Z,101937.66
2022-09-22T09:31:07.527Z,101926.75
2022-09-22T09:32:17.543Z,101924.81
2022-09-22T09:33:31.321Z,101930.03
2022-09-22T09:34:33.334Z,101931.63
2022-09-22T09:35:41.446Z,101926.03
2022-09-22T09:36:49.897Z,101923.13
2022-09-22T09:37:53.952Z,101926.41
2022-09-22T09:38:58.981Z,101926.06
2022-09-22T09:40:03.094Z,101930.19
2022-09-22T09:41:15.062Z,101922.06
2022-09-22T09:42:22.407Z,101918.06
2022-09-22T09:43:27.647Z,101921.47
2022-09-22T09:44:31.879Z,101912.38
2022-09-22T09:45:45.403Z,101914.91
2022-09-22T09:46:58.804Z,101911.03
2022-09-22T09:48:21.970Z,101913.59
2022-09-22T09:49:24.929Z,101919.56
2022-09-22T09:50:32.029Z,101913.22
2022-09-22T09:51:39.659Z,101918.47
2022-09-22T09:52:42.851Z,101912.97
2022-09-22T09:53:46.517Z,101904.84
2022-09-22T09:54:49.920Z,101913.47
2022-09-22T09:55:51.464Z,101911.53
2022-09-22T09:57:09.423Z,101913.13
2022-09-22T09:58:34.936Z,101899.63
2022-09-22T09:59:56.968Z,101899.41
2022-09-22T10:01:00.553Z,101892.16
2022-09-22T10:02:04.497Z,101894.81
2022-09-22T10:03:15.426Z,101890.19
2022-09-22T10:04:30.892Z,101897.25
2022-09-22T10:05:37.442Z,101891.75
2022-09-22T10:06:39.019Z,101898.66
2022-09-22T10:07:44.414Z,101892.97
2022-09-22T10:08:49.351Z,101889.19
2022-09-22T10:09:53.180Z,101887.13
2022-09-22T10:10:58.189Z,101887.72
2022-09-22T10:12:02.393Z,101886.50
2022-09-22T10:13:23.451Z,101884.31
2022-09-22T10:14:30.165Z,101882.38
2022-09-22T10:15:33.526Z,101877.63
2022-09-22T10:16:36.310Z,101882.84
2022-09-22T10:17:41.082Z,101886.09
2022-09-22T10:18:43.613Z,101875.41
2022-09-22T10:19:47.622Z,101879.66
2022-09-22T10:21:02.796Z,101875.03
2022-09-22T10:22:24.147Z,101871.38
2022-09-22T10:23:27.513Z,101871.25
2022-09-22T10:24:32.335Z,101874.66
2022-09-22T10:25:33.949Z,101876.22
2022-09-22T10:26:38.683Z,101872.56
2022-09-22T10:27:41.218Z,101874.13
2022-09-22T10:28:42.928Z,101875.00
2022-09-22T10:29:45.440Z,101871.34
2022-09-22T10:30:58.257Z,101871.34
2022-09-22T10:32:08.276Z,101866.00
2022-09-22T10:33:16.316Z,101866.59
2022-09-22T10:34:31.369Z,101867.47
2022-09-22T10:35:36.913Z,101863.53
2022-09-22T10:36:45.786Z,101864.97
2022-09-22T10:37:48.506Z,101868.25
2022-09-22T10:38:53.321Z,101862.53
2022-09-22T10:40:02.178Z,101863.13
2022-09-22T10:41:08.673Z,101859.31
2022-09-22T10:42:28.691Z,101857.25
2022-09-22T10:43:45.859Z,101866.84
2022-09-22T10:44:49.142Z,101858.69
2022-09-22T10:46:01.811Z,101851.38
2022-09-22T10:47:31.016Z,101861.22
2022-09-22T10:48:43.817Z,101859.03
2022-09-22T10:50:09.344Z,101855.22
2022-09-22T10:51:21.824Z,101851.44
2022-09-22T10:52:30.629Z,101855.59
2022-09-22T10:54:06.723Z,101854.59
2022-09-22T10:55:20.004Z,101850.94
2022-09-22T10:56:29.550Z,101852.50
2022-09-22T10:57:47.206Z,101848.16
2022-09-22T10:59:34.386Z,101843.78
2022-09-22T11:00:39.381Z,101840.13
2022-09-22T11:02:00.010Z,101834.63
2022-09-22T11:03:34.011Z,101844.22
2022-09-22T11:04:46.763Z,101846.50
2022-09-22T11:06:22.225Z,101843.44
2022-09-22T11:08:08.364Z,101844.53
2022-09-22T11:09:34.239Z,101839.19
2022-09-22T11:10:58.549Z,101837.34
2022-09-22T11:12:17.165Z,101841.75
2022-09-22T11:13:34.296Z,101842.59
2022-09-22T11:14:49.932Z,101846.25
2022-09-22T11:16:13.302Z,101838.22
2022-09-22T11:17:31.230Z,101837.25
2022-09-22T11:18:49.162Z,101839.75
2022-09-22T11:20:32.212Z,101830.75
2022-09-22T11:21:48.004Z,101833.16
2022-09-22T11:23:18.077Z,101827.69
2022-09-22T11:24:38.161Z,101825.03
2022-09-22T11:25:55.166Z,101820.38
2022-09-22T11:27:01.121Z,101824.59
2022-09-22T11:28:20.752Z,101821.81
2022-09-22T11:29:44.956Z,101819.13
2022-09-22T11:30:51.691Z,101819.13
2022-09-22T11:32:06.025Z,101818.16
2022-09-22T11:33:25.054Z,101812.66
2022-09-22T11:34:52.191Z,101808.84
2022-09-22T11:36:07.022Z,101812.25
2022-09-22T11:37:29.453Z,101805.78
2022-09-22T11:38:58.887Z,101803.69
2022-09-22T11:40:18.520Z,101801.72
2022-09-22T11:41:30.623Z,101810.22
2022-09-22T11:42:43.154Z,101803.44
2022-09-22T11:44:08.833Z,101801.47
2022-09-22T11:45:32.704Z,101806.44
2022-09-22T11:46:54.720Z,101795.44
2022-09-22T11:48:06.882Z,101795.16
2022-09-22T11:49:21.122Z,101805.34
2022-09-22T11:50:49.844Z,101803.41
2022-09-22T11:52:16.529Z,101797.88
2022-09-22T11:53:50.127Z,101800.56
2022-09-22T11:55:08.980Z,101796.06
2022-09-22T11:56:24.053Z,101795.06
2022-09-22T11:57:32.097Z,101793.09
2022-09-22T11:58:40.950Z,101789.16
2022-09-22T11:59:49.440Z,101782.53
2022-09-22T12:00:56.372Z,101784.94
2022-09-22T12:02:04.430Z,101776.75
2022-09-22T12:03:13.554Z,101785.38
2022-09-22T12:04:24.589Z,101780.59
2022-09-22T12:05:30.712Z,101776.66
2022-09-22T12:06:41.214Z,101774.69
2022-09-22T12:07:48.340Z,101770.19
2022-09-22T12:08:58.535Z,101770.88
2022-09-22T12:10:06.458Z,101772.28
2022-09-22T12:11:13.635Z,101770.19
2022-09-22T12:12:19.954Z,101780.50
2022-09-22T12:13:23.929Z,101768.50
2022-09-22T12:14:28.213Z,101768.22
2022-09-22T12:15:35.531Z,101763.56
2022-09-22T12:16:45.269Z,101768.91
2022-09-22T12:17:52.521Z,101766.25
2022-09-22T12:19:01.451Z,101766.13
2022-09-22T12:20:15.417Z,101765.25
2022-09-22T12:21:30.942Z,101752.81
2022-09-22T12:22:41.734Z,101750.16
2022-09-22T12:23:51.237Z,101767.09
2022-09-22T12:24:53.164Z,101754.53
2022-09-22T12:26:01.622Z,101750.72
2022-09-22T12:27:12.206Z,101755.91
2022-09-22T12:28:19.199Z,101754.94
2022-09-22T12:29:27.526Z,101740.56
2022-09-22T12:30:29.094Z,101744.22
2022-09-22T12:31:36.291Z,101734.47
2022-09-22T12:32:42.393Z,101736.44
2022-09-22T12:33:51.016Z,101738.28
2022-09-22T12:34:57.547Z,101743.50
2022-09-22T12:36:01.175Z,101747.88
2022-09-22T12:37:11.770Z,101744.22
2022-09-22T12:38:13.519Z,101747.88
2022-09-22T12:39:18.773Z,101742.25
2022-09-22T12:40:30.611Z,101742.25
2022-09-22T12:41:43.058Z,101740.25
2022-09-22T12:42:49.967Z,101730.50
2022-09-22T12:43:52.655Z,101734.91
2022-09-22T12:44:57.358Z,101727.69
2022-09-22T12:46:03.122Z,101725.72
2022-09-22T12:47:16.086Z,101724.56
2022-09-22T12:48:22.552Z,101728.97
2022-09-22T12:49:25.322Z,101725.28
2022-09-22T12:50:34.139Z,101729.53
2022-09-22T12:51:36.829Z,101721.34
2022-09-22T12:53:04.651Z,101719.34
2022-09-22T12:54:40.580Z,101716.66
2022-09-22T12:55:44.156Z,101722.72
2022-09-22T12:56:54.940Z,101718.78
2022-09-22T12:57:59.138Z,101723.84
2022-09-22T12:59:01.765Z,101732.59
2022-09-22T13:00:14.656Z,101726.53
2022-09-22T13:01:35.944Z,101731.34
2022-09-22T13:02:41.851Z,101727.09
2022-09-22T13:03:51.074Z,101719.34
2022-09-22T13:05:33.304Z,101720.50
2022-09-22T13:06:57.514Z,101724.28
2022-09-22T13:08:00.218Z,101721.59
2022-09-22T13:09:18.462Z,101721.59
2022-09-22T13:10:44.053Z,101712.72
2022-09-22T13:12:25.252Z,101723.31
2022-09-22T13:13:44.796Z,101717.09
2022-09-22T13:15:18.753Z,101720.63
2022-09-22T13:16:38.172Z,101714.28
2022-09-22T13:17:42.380Z,101714.13
2022-09-22T13:18:46.985Z,101712.28
2022-09-22T13:19:56.212Z,101708.63
2022-09-22T13:20:59.573Z,101709.31
2022-09-22T13:22:17.662Z,101701.25
2022-09-22T13:23:20.303Z,101700.41
2022-09-22T13:24:27.453Z,101700.28
2022-09-22T13:25:31.093Z,101700.28
2022-09-22T13:26:35.262Z,101703.66
2022-09-22T13:27:38.210Z,101693.94
2022-09-22T13:28:40.990Z,101689.38
2022-09-22T13:29:57.505Z,101693.06
2022-09-22T13:31:04.758Z,101680.50
2022-09-22T13:32:18.474Z,101690.53
2022-09-22T13:33:22.678Z,101685.03
2022-09-22T13:34:29.344Z,101692.22
2022-09-22T13:35:33.693Z,101687.53
2022-09-22T13:36:36.244Z,101685.72
2022-09-22T13:37:39.856Z,101686.56
2022-09-22T13:38:44.257Z,101685.59
2022-09-22T13:39:49.213Z,101677.53
2022-09-22T13:40:52.630Z,101676.53
2022-09-22T13:41:59.164Z,101681.75
2022-09-22T13:43:08.761Z,101681.59
2022-09-22T13:44:12.740Z,101680.63
2022-09-22T13:45:20.224Z,101673.28
2022-09-22T13:46:25.745Z,101675.97
2022-09-22T13:47:27.962Z,101673.28
2022-09-22T13:48:34.659Z,101668.72
2022-09-22T13:49:40.929Z,101675.97
2022-09-22T13:50:50.287Z,101674.25
2022-09-22T13:51:57.027Z,101673.41
2022-09-22T13:53:03.076Z,101669.88
2022-09-22T13:54:07.164Z,101660.84
2022-09-22T13:55:14.062Z,101668.72
2022-09-22T13:56:21.926Z,101655.19
2022-09-22T13:57:27.791Z,101659.41
2022-09-22T13:58:37.367Z,101658.25
2022-09-22T13:59:41.143Z,101655.44
2022-09-22T14:01:12.138Z,101657.97
2022-09-22T14:02:13.904Z,101662.34
2022-09-22T14:03:19.748Z,101665.03
2022-09-22T14:04:24.424Z,101658.69
2022-09-22T14:05:30.139Z,101666.72
2022-09-22T14:06:33.151Z,101662.22
2022-09-22T14:07:55.150Z,101655.16
2022-09-22T14:09:01.565Z,101656.28
2022-09-22T14:10:04.904Z,101658.97
2022-09-22T14:11:12.500Z,101651.78
2022-09-22T14:12:15.978Z,101648.25
2022-09-22T14:13:43.393Z,101644.03
2022-09-22T14:14:46.013Z,101647.53
2022-09-22T14:15:48.898Z,101642.16
2022-09-22T14:16:56.482Z,101649.78
2022-09-22T14:17:58.792Z,101643.25
2022-09-22T14:19:06.590Z,101636.91
2022-09-22T14:20:09.779Z,101635.94
2022-09-22T14:21:12.619Z,101635.94
2022-09-22T14:22:18.874Z,101639.28
2022-09-22T14:23:27.587Z,101634.06
2022-09-22T14:24:31.953Z,101638.59
2022-09-22T14:25:33.580Z,101632.22
2022-09-22T14:26:38.920Z,101633.94
2022-09-22T14:27:47.749Z,101639.28
2022-09-22T14:28:52.586Z,101633.94
2022-09-22T14:29:56.765Z,101626.84
2022-09-22T14:30:58.477Z,101628.56
2022-09-22T14:32:10.735Z,101625.03
2022-09-22T14:33:19.399Z,101625.03
2022-09-22T14:34:26.324Z,101620.50
2022-09-22T14:35:30.305Z,101624.88
2022-09-22T14:36:32.943Z,101622.22
2022-09-22T14:37:39.166Z,101626.56
2022-09-22T14:38:46.689Z,101617.69
2022-09-22T14:39:56.248Z,101621.19
2022-09-22T14:40:58.574Z,101613.84
2022-09-22T14:42:11.785Z,101615.53
2022-09-22T14:43:23.863Z,101615.53
2022-09-22T14:44:42.752Z,101613.84
2022-09-22T14:45:57.713Z,101617.53
2022-09-22T14:47:08.123Z,101611.31
2022-09-22T14:48:18.247Z,101609.47
2022-09-22T14:49:40.626Z,101605.78
2022-09-22T14:50:46.397Z,101609.34
2022-09-22T14:51:49.129Z,101612.03
2022-09-22T14:52:56.338Z,101614.56
2022-09-22T14:54:05.578Z,101606.50
2022-09-22T14:55:16.805Z,101604.78
2022-09-22T14:56:22.854Z,101603.81
2022-09-22T14:57:27.360Z,101603.97
2022-09-22T14:58:30.686Z,101603.97
2022-09-22T14:59:54.851Z,101607.47
2022-09-22T15:01:17.586Z,101605.06
2022-09-22T15:02:36.827Z,101605.06
2022-09-22T15:03:41.004Z,101601.41
2022-09-22T15:04:52.224Z,101603.13
2022-09-22T15:05:55.357Z,101601.16
2022-09-22T15:06:58.997Z,101592.09
2022-09-22T15:08:03.074Z,101593.81
2022-09-22T15:09:07.545Z,101598.88
2022-09-22T15:10:20.411Z,101597.84
2022-09-22T15:11:48.147Z,101593.19
2022-09-22T15:12:50.671Z,101596.56
2022-09-22T15:13:52.727Z,101592.91
2022-09-22T15:15:01.171Z,101593.03
2022-09-22T15:16:03.277Z,101587.84
2022-09-22T15:17:43.935Z,101588.81
2022-09-22T15:18:47.456Z,101584.72
2022-09-22T15:19:50.890Z,101581.38
2022-09-22T15:20:56.998Z,101578.69
2022-09-22T15:21:58.523Z,101576.00
2022-09-22T15:23:01.058Z,101584.06
2022-09-22T15:24:05.493Z,101586.72
2022-09-22T15:25:13.768Z,101572.56
2022-09-22T15:26:21.710Z,101570.91
2022-09-22T15:27:26.265Z,101581.63
2022-09-22T15:28:28.778Z,101579.94
2022-09-22T15:29:32.261Z,101579.09
2022-09-22T15:30:36.109Z,101572.72
2022-09-22T15:31:39.666Z,101562.84
2022-09-22T15:32:45.126Z,101572.56
2022-09-22T15:33:47.745Z,101565.53
2022-09-22T15:34:50.324Z,101578.09
2022-09-22T15:35:56.318Z,101568.34
2022-09-22T15:36:58.068Z,101568.34
2022-09-22T15:38:01.205Z,101570.19
2022-09-22T15:39:08.918Z,101565.81
2022-09-22T15:40:16.868Z,101569.50
2022-09-22T15:41:19.447Z,101570.66
2022-09-22T15:42:22.028Z,101565.41
2022-09-22T15:43:30.802Z,101569.13
2022-09-22T15:44:32.551Z,101565.59
2022-09-22T15:45:37.159Z,101566.56
2022-09-22T15:46:39.256Z,101557.66
2022-09-22T15:47:44.708Z,101559.38
2022-09-22T15:48:46.412Z,101555.84
2022-09-22T15:49:50.247Z,101565.72
2022-09-22T15:50:52.617Z,101567.56
2022-09-22T15:51:55.816Z,101557.97
2022-09-22T15:52:57.450Z,101556.97
2022-09-22T15:54:00.062Z,101557.97
2022-09-22T15:55:01.718Z,101559.97
2022-09-22T15:56:06.498Z,101558.25
2022-09-22T15:57:09.783Z,101559.25
2022-09-22T15:58:16.486Z,101551.19
2022-09-22T15:59:22.200Z,101555.72
2022-09-22T16:00:27.434Z,101553.19
2022-09-22T16:01:31.304Z,101552.22
2022-09-22T16:02:32.925Z,101549.53
2022-09-22T16:03:41.026Z,101557.59
2022-09-22T16:04:44.262Z,101546.84
2022-09-22T16:05:47.534Z,101553.88
2022-09-22T16:06:54.130Z,101552.91
2022-09-22T16:07:56.156Z,101549.22
2022-09-22T16:08:58.718Z,101545.81
2022-09-22T16:10:00.292Z,101544.00
2022-09-22T16:11:05.490Z,101552.22
2022-09-22T16:12:10.870Z,101546.84
2022-09-22T16:13:14.024Z,101547.81
2022-09-22T16:14:15.973Z,101549.84
2022-09-22T16:15:18.901Z,101543.63
2022-09-22T16:16:20.497Z,101546.44
2022-09-22T16:17:25.231Z,101545.59
2022-09-22T16:18:26.809Z,101543.91
2022-09-22T16:19:31.826Z,101541.38
2022-09-22T16:20:34.401Z,101542.34
2022-09-22T16:21:37.899Z,101548.56
2022-09-22T16:22:41.316Z,101543.38
2022-09-22T16:23:43.156Z,101541.66
2022-09-22T16:24:45.882Z,101542.66
2022-09-22T16:25:53.684Z,101544.47
2022-09-22T16:26:56.170Z,101541.28
2022-09-22T16:27:59.220Z,101544.94
2022-09-22T16:29:01.893Z,101538.91
2022-09-22T16:30:04.965Z,101538.03
2022-09-22T16:31:08.640Z,101540.84
2022-09-22T16:32:11.635Z,101537.50
2022-09-22T16:33:15.516Z,101540.31
2022-09-22T16:34:18.084Z,101545.66
2022-09-22T16:35:20.428Z,101542.31
2022-09-22T16:36:23.039Z,101546.81
2022-09-22T16:37:24.582Z,101538.91
2022-09-22T16:38:27.148Z,101547.13
2022-09-22T16:39:28.752Z,101541.88
2022-09-22T16:40:31.349Z,101541.88
2022-09-22T16:41:34.712Z,101545.59
2022-09-22T16:42:39.012Z,101536.97
2022-09-22T16:43:40.606Z,101533.59
2022-09-22T16:44:43.152Z,101538.94
2022-09-22T16:46:03.474Z,101540.94
2022-09-22T16:47:06.232Z,101537.56
2022-09-22T16:48:07.975Z,101537.88
2022-09-22T16:49:15.556Z,101542.22
2022-09-22T16:50:18.548Z,101531.94
2022-09-22T16:51:20.790Z,101529.41
2022-09-22T16:52:25.492Z,101536.59
2022-09-22T16:53:27.032Z,101534.94
2022-09-22T16:54:33.678Z,101529.69
2022-09-22T16:55:37.477Z,101531.41
2022-09-22T16:56:43.040Z,101531.53
2022-09-22T16:57:44.646Z,101539.72
2022-09-22T16:58:47.301Z,101536.34
2022-09-22T16:59:50.217Z,101541.00
2022-09-22T17:00:51.842Z,101539.31
2022-09-22T17:01:54.812Z,101545.66
2022-09-22T17:02:56.388Z,101533.38
2022-09-22T17:03:59.615Z,101532.69
2022-09-22T17:05:03.457Z,101541.59
2022-09-22T17:06:06.597Z,101535.66
2022-09-22T17:07:09.321Z,101538.47
2022-09-22T17:08:11.002Z,101539.63
2022-09-22T17:09:14.630Z,101537.03
2022-09-22T17:10:16.491Z,101541.59
2022-09-22T17:11:19.599Z,101533.84
2022-09-22T17:12:29.105Z,101534.81
2022-09-22T17:13:31.222Z,101537.63
2022-09-22T17:14:35.197Z,101538.63
2022-09-22T17:15:36.934Z,101534.38
2022-09-22T17:16:40.937Z,101533.56
2022-09-22T17:17:43.622Z,101534.53
2022-09-22T17:18:46.291Z,101531.13
2022-09-22T17:19:48.161Z,101530.44
2022-09-22T17:20:51.980Z,101526.06
2022-09-22T17:21:56.585Z,101538.78
2022-09-22T17:22:58.294Z,101534.56
2022-09-22T17:24:01.287Z,101532.00
2022-09-22T17:25:03.870Z,101534.00
2022-09-22T17:26:11.672Z,101525.25
2022-09-22T17:27:14.552Z,101530.75
2022-09-22T17:28:16.442Z,101533.56
2022-09-22T17:29:23.340Z,101530.19
2022-09-22T17:30:26.203Z,101535.84
2022-09-22T17:31:31.032Z,101536.81
2022-09-22T17:32:33.643Z,101530.09
2022-09-22T17:33:36.575Z,101530.91
2022-09-22T17:34:39.693Z,101526.69
2022-09-22T17:35:41.258Z,101530.34
2022-09-22T17:36:45.546Z,101532.31
2022-09-22T17:37:49.383Z,101535.16
2022-09-22T17:38:53.695Z,101522.75
2022-09-22T17:39:56.180Z,101532.72
2022-09-22T17:41:07.157Z,101528.38
2022-09-22T17:42:10.017Z,101529.53
2022-09-22T17:43:11.522Z,101525.28
2022-09-22T17:44:19.543Z,101516.66
2022-09-22T17:45:21.080Z,101531.06
2022-09-22T17:46:24.811Z,101518.78
2022-09-22T17:47:45.636Z,101527.81
2022-09-22T17:49:05.786Z,101532.59
2022-09-22T17:50:29.766Z,101520.34
2022-09-22T17:51:52.131Z,101518.94
2022-09-22T17:53:14.105Z,101530.78
2022-09-22T17:54:40.091Z,101524.00
2022-09-22T17:55:42.908Z,101526.97
2022-09-22T17:56:44.552Z,101528.91
2022-09-22T17:57:47.416Z,101535.28
2022-09-22T17:58:48.910Z,101532.59
2022-09-22T17:59:51.875Z,101534.41
2022-09-22T18:00:53.723Z,101536.25
2022-09-22T18:01:56.242Z,101534.53
2022-09-22T18:02:58.972Z,101533.69
2022-09-22T18:04:00.805Z,101538.94
2022-09-22T18:05:05.234Z,101535.41
2022-09-22T18:06:14.431Z,101538.94
2022-09-22T18:07:18.264Z,101539.06
2022-09-22T18:08:22.275Z,101536.53
2022-09-22T18:09:23.987Z,101536.53
2022-09-22T18:10:31.997Z,101540.19
2022-09-22T18:11:33.544Z,101538.50
2022-09-22T18:12:36.250Z,101545.69
2022-09-22T18:13:40.214Z,101531.47
2022-09-22T18:14:45.937Z,101543.13
2022-09-22T18:15:49.073Z,101545.97
2022-09-22T18:16:50.676Z,101544.28
2022-09-22T18:17:55.529Z,101542.56
2022-09-22T18:18:57.102Z,101532.72
2022-09-22T18:20:00.368Z,101538.22
2022-09-22T18:21:01.876Z,101539.16
2022-09-22T18:22:06.142Z,101537.63
2022-09-22T18:23:08.675Z,101536.75
2022-09-22T18:24:19.377Z,101536.88
2022-09-22T18:25:23.844Z,101537.88
2022-09-22T18:26:38.422Z,101535.34
2022-09-22T18:27:41.599Z,101533.63
2022-09-22T18:28:43.160Z,101536.47
2022-09-22T18:29:47.074Z,101538.41
2022-09-22T18:30:49.576Z,101532.38
2022-09-22T18:31:51.208Z,101532.50
2022-09-22T18:32:54.917Z,101537.03
2022-09-22T18:33:56.425Z,101531.78
2022-09-22T18:34:58.917Z,101538.13
2022-09-22T18:36:00.604Z,101531.94
2022-09-22T18:37:04.553Z,101535.59
2022-09-22T18:38:07.023Z,101532.91
2022-09-22T18:39:09.201Z,101537.56
2022-09-22T18:40:13.265Z,101532.22
2022-09-22T18:41:17.986Z,101530.53
2022-09-22T18:42:24.216Z,101534.16
2022-09-22T18:43:27.149Z,101533.47
2022-09-22T18:44:28.994Z,101529.09
2022-09-22T18:45:32.079Z,101529.25
2022-09-22T18:46:34.691Z,101527.66
2022-09-22T18:47:43.068Z,101528.66
2022-09-22T18:48:44.581Z,101528.78
2022-09-22T18:49:51.211Z,101530.63
2022-09-22T18:50:54.118Z,101524.56
2022-09-22T18:51:55.694Z,101526.50
2022-09-22T18:52:58.261Z,101533.72
2022-09-22T18:54:01.116Z,101528.50
2022-09-22T18:55:04.805Z,101531.16
2022-09-22T18:56:15.856Z,101527.63
2022-09-22T18:57:18.429Z,101530.47
2022-09-22T18:58:19.947Z,101530.47
2022-09-22T18:59:24.273Z,101530.47
2022-09-22T19:00:26.056Z,101527.06
2022-09-22T19:01:34.306Z,101530.72
2022-09-22T19:02:36.937Z,101529.88
2022-09-22T19:03:39.553Z,101530.84
2022-09-22T19:04:42.212Z,101525.66
2022-09-22T19:05:43.776Z,101529.31
2022-09-22T19:07:03.781Z,101532.09
2022-09-22T19:08:07.135Z,101534.94
2022-09-22T19:09:08.823Z,101530.56
2022-09-22T19:10:14.111Z,101536.88
2022-09-22T19:11:18.086Z,101529.97
2022-09-22T19:12:20.353Z,101523.78
2022-09-22T19:13:23.618Z,101526.44
2022-09-22T19:14:25.241Z,101525.75
2022-09-22T19:15:27.811Z,101537.41
2022-09-22T19:16:32.220Z,101534.03
2022-09-22T19:17:34.714Z,101527.84
2022-09-22T19:18:36.320Z,101533.31